createdAt,value
2019-02-05T00:00:39.433Z,101509.00
2019-02-05T00:03:14.540Z,101516.00
2019-02-05T00:05:48.071Z,101516.00
2019-02-05T00:08:21.574Z,101528.00
2019-02-05T00:10:55.051Z,101520.00
2019-02-05T00:13:27.655Z,101520.00
2019-02-05T00:16:00.131Z,101524.00
2019-02-05T00:18:33.235Z,101519.00
2019-02-05T00:21:05.599Z,101516.00
2019-02-05T00:23:38.166Z,101516.00
2019-02-05T00:26:10.695Z,101515.00
2019-02-05T00:28:43.170Z,101513.00
2019-02-05T00:31:15.683Z,101522.00
2019-02-05T00:33:48.619Z,101505.00
2019-02-05T00:36:21.086Z,101510.00
2019-02-05T00:38:53.590Z,101503.00
2019-02-05T00:41:26.395Z,101509.00
2019-02-05T00:43:58.791Z,101500.00
2019-02-05T00:46:31.273Z,101504.00
2019-02-05T00:49:03.776Z,101497.00
2019-02-05T00:51:36.958Z,101496.00
2019-02-05T00:54:10.411Z,101494.00
2019-02-05T00:56:42.795Z,101496.00
2019-02-05T00:59:16.443Z,101485.00
2019-02-05T01:01:49.396Z,101481.00
2019-02-05T01:04:22.064Z,101484.00
2019-02-05T01:06:55.184Z,101487.00
2019-02-05T01:09:28.436Z,101478.00
2019-02-05T01:12:01.428Z,101484.00
2019-02-05T01:14:34.756Z,101484.00
2019-02-05T01:17:07.802Z,101480.00
2019-02-05T01:19:41.140Z,101477.00
2019-02-05T01:22:14.689Z,101470.00
2019-02-05T01:24:48.280Z,101472.00
2019-02-05T01:27:21.305Z,101466.00
2019-02-05T01:29:54.025Z,101464.00
2019-02-05T01:32:26.758Z,101466.00
2019-02-05T01:34:59.458Z,101470.00
2019-02-05T01:37:32.181Z,101458.00
2019-02-05T01:40:04.839Z,101466.00
2019-02-05T01:42:37.662Z,101450.00
2019-02-05T01:45:12.597Z,101459.00
2019-02-05T01:47:45.092Z,101447.00
2019-02-05T01:50:20.160Z,101447.00
2019-02-05T01:52:52.835Z,101451.00
2019-02-05T01:55:25.460Z,101451.00
2019-02-05T01:57:59.070Z,101449.00
2019-02-05T02:00:33.621Z,101438.00
2019-02-05T02:03:07.083Z,101431.00
2019-02-05T02:05:41.561Z,101426.00
2019-02-05T02:08:14.366Z,101425.00
2019-02-05T02:10:47.754Z,101416.00
2019-02-05T02:13:20.723Z,101410.00
2019-02-05T02:15:54.043Z,101406.00
2019-02-05T02:18:27.085Z,101406.00
2019-02-05T02:20:59.835Z,101403.00
2019-02-05T02:23:33.284Z,101412.00
2019-02-05T02:26:06.273Z,101425.00
2019-02-05T02:28:38.770Z,101431.00
2019-02-05T02:31:11.447Z,101436.00
2019-02-05T02:33:43.902Z,101437.00
2019-02-05T02:36:16.962Z,101437.00
2019-02-05T02:38:50.336Z,101429.00
2019-02-05T02:41:23.723Z,101431.00
2019-02-05T02:43:58.114Z,101429.00
2019-02-05T02:46:30.870Z,101425.00
2019-02-05T02:49:03.386Z,101421.00
2019-02-05T02:51:36.994Z,101412.00
2019-02-05T02:54:09.672Z,101421.00
2019-02-05T02:56:42.464Z,101412.00
2019-02-05T02:59:16.147Z,101401.00
2019-02-05T03:01:48.787Z,101400.00
2019-02-05T03:04:21.655Z,101400.00
2019-02-05T03:06:54.248Z,101392.00
2019-02-05T03:09:27.433Z,101388.00
2019-02-05T03:11:59.916Z,101395.00
2019-02-05T03:14:34.051Z,101392.00
2019-02-05T03:17:06.740Z,101389.00
2019-02-05T03:19:39.769Z,101390.00
2019-02-05T03:22:12.172Z,101389.00
2019-02-05T03:24:44.827Z,101385.00
2019-02-05T03:27:18.476Z,101384.00
2019-02-05T03:29:50.872Z,101375.00
2019-02-05T03:32:23.875Z,101390.00
2019-02-05T03:34:56.336Z,101379.00
2019-02-05T03:37:28.810Z,101381.00
2019-02-05T03:40:01.552Z,101372.00
2019-02-05T03:42:34.064Z,101372.00
2019-02-05T03:45:08.981Z,101372.00
2019-02-05T03:47:41.392Z,101368.00
2019-02-05T03:50:13.960Z,101369.00
2019-02-05T03:52:48.503Z,101368.00
2019-02-05T03:55:35.124Z,101367.00
2019-02-05T03:58:21.451Z,101352.00
2019-02-05T04:01:10.842Z,101352.00
2019-02-05T04:03:57.395Z,101362.00
2019-02-05T04:06:52.854Z,101364.00
2019-02-05T04:09:36.475Z,101361.00
2019-02-05T04:12:10.911Z,101364.00
2019-02-05T04:14:57.095Z,101362.00
2019-02-05T04:17:58.531Z,101357.00
2019-02-05T04:20:34.144Z,101350.00
2019-02-05T04:23:29.391Z,101357.00
2019-02-05T04:26:21.726Z,101345.00
2019-02-05T04:29:02.083Z,101348.00
2019-02-05T04:31:36.861Z,101355.00
2019-02-05T04:34:14.110Z,101358.00
2019-02-05T04:36:58.917Z,101346.00
2019-02-05T04:39:57.101Z,101355.00
2019-02-05T04:42:52.820Z,101352.00
2019-02-05T04:45:42.249Z,101347.00
2019-02-05T04:48:37.900Z,101364.00
2019-02-05T04:51:34.014Z,101352.00
2019-02-05T04:54:11.708Z,101355.00
2019-02-05T04:57:08.244Z,101351.00
2019-02-05T04:59:43.099Z,101345.00
2019-02-05T05:02:18.933Z,101346.00
2019-02-05T05:04:56.369Z,101349.00
2019-02-05T05:07:49.281Z,101352.00
2019-02-05T05:10:21.849Z,101348.00
2019-02-05T05:12:55.113Z,101342.00
2019-02-05T05:15:27.834Z,101345.00
2019-02-05T05:18:01.732Z,101343.00
2019-02-05T05:20:34.999Z,101345.00
2019-02-05T05:23:07.775Z,101339.00
2019-02-05T05:25:40.248Z,101348.00
2019-02-05T05:28:13.052Z,101345.00
2019-02-05T05:30:45.789Z,101345.00
2019-02-05T05:33:18.549Z,101334.00
2019-02-05T05:35:50.949Z,101337.00
2019-02-05T05:38:23.417Z,101343.00
2019-02-05T05:40:56.217Z,101339.00
2019-02-05T05:43:28.946Z,101337.00
2019-02-05T05:46:02.485Z,101334.00
2019-02-05T05:48:34.945Z,101337.00
2019-02-05T05:51:07.685Z,101343.00
2019-02-05T05:53:40.191Z,101342.00
2019-02-05T05:56:14.331Z,101336.00
2019-02-05T05:58:46.957Z,101344.00
2019-02-05T06:01:19.741Z,101337.00
2019-02-05T06:03:52.463Z,101340.00
2019-02-05T06:06:25.144Z,101347.00
2019-02-05T06:08:57.667Z,101345.00
2019-02-05T06:11:30.276Z,101339.00
2019-02-05T06:14:04.117Z,101341.00
2019-02-05T06:16:36.806Z,101339.00
2019-02-05T06:19:09.385Z,101344.00
2019-02-05T06:21:41.883Z,101347.00
2019-02-05T06:24:14.875Z,101343.00
2019-02-05T06:26:47.479Z,101344.00
2019-02-05T06:29:20.588Z,101347.00
2019-02-05T06:31:53.272Z,101356.00
2019-02-05T06:34:26.033Z,101363.00
2019-02-05T06:36:58.534Z,101352.00
2019-02-05T06:39:31.004Z,101363.00
2019-02-05T06:42:04.241Z,101356.00
2019-02-05T06:44:36.592Z,101362.00
2019-02-05T06:47:11.447Z,101356.00
2019-02-05T06:49:44.052Z,101350.00
2019-02-05T06:52:16.673Z,101355.00
2019-02-05T06:54:50.952Z,101365.00
2019-02-05T06:57:23.793Z,101362.00
2019-02-05T06:59:56.329Z,101365.00
2019-02-05T07:02:29.142Z,101365.00
2019-02-05T07:05:01.515Z,101373.00
2019-02-05T07:07:34.306Z,101370.00
2019-02-05T07:10:07.710Z,101372.00
2019-02-05T07:12:41.289Z,101382.00
2019-02-05T07:15:14.391Z,101375.00
2019-02-05T07:17:49.676Z,101380.00
2019-02-05T07:20:21.955Z,101379.00
2019-02-05T07:22:55.791Z,101376.00
2019-02-05T07:25:28.495Z,101386.00
2019-02-05T07:28:01.183Z,101389.00
2019-02-05T07:30:33.643Z,101393.00
2019-02-05T07:33:06.014Z,101391.00
2019-02-05T07:35:41.039Z,101386.00
2019-02-05T07:38:13.530Z,101396.00
2019-02-05T07:40:46.469Z,101389.00
2019-02-05T07:43:18.844Z,101396.00
2019-02-05T07:45:52.628Z,101390.00
2019-02-05T07:48:25.235Z,101386.00
2019-02-05T07:50:57.735Z,101396.00
2019-02-05T07:53:33.087Z,101400.00
2019-02-05T07:56:03.931Z,101403.00
2019-02-05T07:58:36.901Z,101402.00
2019-02-05T08:01:09.439Z,101405.00
2019-02-05T08:03:42.585Z,101402.00
2019-02-05T08:06:15.123Z,101402.00
2019-02-05T08:08:47.908Z,101401.00
2019-02-05T08:11:20.532Z,101403.00
2019-02-05T08:13:53.507Z,101405.00
2019-02-05T08:16:26.165Z,101404.00
2019-02-05T08:18:58.853Z,101407.00
2019-02-05T08:21:31.420Z,101409.00
2019-02-05T08:24:04.082Z,101410.00
2019-02-05T08:26:36.449Z,101415.00
2019-02-05T08:29:09.210Z,101421.00
2019-02-05T08:31:42.467Z,101422.00
2019-02-05T08:34:15.041Z,101426.00
2019-02-05T08:36:49.486Z,101417.00
2019-02-05T08:39:22.309Z,101422.00
2019-02-05T08:41:55.299Z,101414.00
2019-02-05T08:44:27.785Z,101420.00
2019-02-05T08:47:00.593Z,101422.00
2019-02-05T08:49:33.525Z,101424.00
2019-02-05T08:52:05.980Z,101427.00
2019-02-05T08:54:38.757Z,101433.00
2019-02-05T08:57:11.240Z,101436.00
2019-02-05T08:59:43.737Z,101436.00
2019-02-05T09:02:16.483Z,101438.00
2019-02-05T09:04:49.245Z,101439.00
2019-02-05T09:07:24.690Z,101435.00
2019-02-05T09:09:58.130Z,101437.00
2019-02-05T09:12:31.052Z,101436.00
2019-02-05T09:15:03.705Z,101445.00
2019-02-05T09:17:36.567Z,101445.00
2019-02-05T09:20:14.352Z,101442.00
2019-02-05T09:22:47.273Z,101453.00
2019-02-05T09:25:20.328Z,101443.00
2019-02-05T09:27:53.124Z,101447.00
2019-02-05T09:30:27.634Z,101449.00
2019-02-05T09:33:02.446Z,101446.00
2019-02-05T09:35:34.953Z,101444.00
2019-02-05T09:38:07.706Z,101447.00
2019-02-05T09:40:41.222Z,101448.00
2019-02-05T09:43:13.685Z,101451.00
2019-02-05T09:45:46.472Z,101458.00
2019-02-05T09:48:19.468Z,101445.00
2019-02-05T09:50:52.115Z,101461.00
2019-02-05T09:53:24.775Z,101457.00
2019-02-05T09:55:57.485Z,101456.00
2019-02-05T09:58:30.032Z,101456.00
2019-02-05T10:01:02.748Z,101452.00
2019-02-05T10:03:37.279Z,101463.00
2019-02-05T10:06:09.450Z,101461.00
2019-02-05T10:08:42.109Z,101459.00
2019-02-05T10:11:14.634Z,101452.00
2019-02-05T10:13:47.498Z,101452.00
2019-02-05T10:16:20.418Z,101451.00
2019-02-05T10:18:52.843Z,101452.00
2019-02-05T10:21:25.500Z,101463.00
2019-02-05T10:23:57.981Z,101459.00
2019-02-05T10:26:30.652Z,101449.00
2019-02-05T10:29:03.031Z,101454.00
2019-02-05T10:31:35.570Z,101450.00
2019-02-05T10:34:08.423Z,101442.00
2019-02-05T10:36:41.068Z,101443.00
2019-02-05T10:39:14.432Z,101448.00
2019-02-05T10:41:47.056Z,101449.00
2019-02-05T10:44:19.661Z,101450.00
2019-02-05T10:46:55.241Z,101452.00
2019-02-05T10:49:28.027Z,101458.00
2019-02-05T10:52:00.945Z,101462.00
2019-02-05T10:54:35.295Z,101461.00
2019-02-05T10:57:08.443Z,101461.00
2019-02-05T10:59:41.006Z,101451.00
2019-02-05T11:02:13.542Z,101459.00
2019-02-05T11:04:46.950Z,101454.00
2019-02-05T11:07:19.538Z,101461.00
2019-02-05T11:09:52.027Z,101453.00
2019-02-05T11:12:26.258Z,101459.00
2019-02-05T11:14:58.952Z,101462.00
2019-02-05T11:17:31.335Z,101458.00
2019-02-05T11:20:04.065Z,101468.00
2019-02-05T11:22:36.630Z,101463.00
2019-02-05T11:25:10.682Z,101461.00
2019-02-05T11:27:45.676Z,101464.00
2019-02-05T11:30:27.790Z,101460.00
2019-02-05T11:33:00.266Z,101474.00
2019-02-05T11:35:33.037Z,101473.00
2019-02-05T11:38:06.986Z,101465.00
2019-02-05T11:40:41.001Z,101468.00
2019-02-05T11:43:13.630Z,101472.00
2019-02-05T11:45:46.405Z,101467.00
2019-02-05T11:48:19.794Z,101467.00
2019-02-05T11:50:52.945Z,101462.00
2019-02-05T11:53:25.719Z,101466.00
2019-02-05T11:55:58.308Z,101467.00
2019-02-05T11:58:30.718Z,101476.00
2019-02-05T12:01:04.786Z,101468.00
2019-02-05T12:03:37.258Z,101473.00
2019-02-05T12:06:09.767Z,101470.00
2019-02-05T12:08:42.343Z,101464.00
2019-02-05T12:11:14.991Z,101472.00
2019-02-05T12:13:48.055Z,101469.00
2019-02-05T12:16:21.772Z,101475.00
2019-02-05T12:18:54.248Z,101473.00
2019-02-05T12:21:26.972Z,101474.00
2019-02-05T12:24:05.113Z,101472.00
2019-02-05T12:26:41.113Z,101476.00
2019-02-05T12:29:18.604Z,101469.00
2019-02-05T12:31:50.442Z,101469.00
2019-02-05T12:34:23.148Z,101463.00
2019-02-05T12:36:55.889Z,101463.00
2019-02-05T12:39:28.307Z,101459.00
2019-02-05T12:42:01.974Z,101457.00
2019-02-05T12:44:34.554Z,101462.00
2019-02-05T12:47:07.011Z,101449.00
2019-02-05T12:49:39.776Z,101452.00
2019-02-05T12:52:13.183Z,101455.00
2019-02-05T12:54:45.687Z,101447.00
2019-02-05T12:57:18.375Z,101443.00
2019-02-05T12:59:50.956Z,101444.00
2019-02-05T13:02:23.731Z,101443.00
2019-02-05T13:04:56.413Z,101437.00
2019-02-05T13:07:29.345Z,101444.00
2019-02-05T13:10:01.820Z,101438.00
2019-02-05T13:12:34.486Z,101439.00
2019-02-05T13:15:08.213Z,101444.00
2019-02-05T13:17:40.757Z,101436.00
2019-02-05T13:20:18.246Z,101432.00
2019-02-05T13:22:50.873Z,101433.00
2019-02-05T13:25:25.046Z,101430.00
2019-02-05T13:27:57.525Z,101431.00
2019-02-05T13:30:31.804Z,101428.00
2019-02-05T13:33:04.611Z,101422.00
2019-02-05T13:35:37.569Z,101432.00
2019-02-05T13:38:10.223Z,101429.00
2019-02-05T13:40:42.804Z,101428.00
2019-02-05T13:43:15.176Z,101415.00
2019-02-05T13:45:47.843Z,101421.00
2019-02-05T13:48:20.620Z,101426.00
2019-02-05T13:50:53.204Z,101411.00
2019-02-05T13:53:26.261Z,101423.00
2019-02-05T13:55:59.031Z,101415.00
2019-02-05T13:58:31.494Z,101410.00
2019-02-05T14:01:04.189Z,101406.00
2019-02-05T14:03:36.570Z,101406.00
2019-02-05T14:06:09.099Z,101407.00
2019-02-05T14:08:41.687Z,101394.00
2019-02-05T14:11:14.523Z,101397.00
2019-02-05T14:13:46.955Z,101401.00
2019-02-05T14:16:19.845Z,101398.00
2019-02-05T14:18:55.231Z,101389.00
2019-02-05T14:21:26.375Z,101382.00
2019-02-05T14:23:59.562Z,101388.00
2019-02-05T14:26:32.155Z,101389.00
2019-02-05T14:29:04.671Z,101396.00
2019-02-05T14:31:37.367Z,101397.00
2019-02-05T14:34:10.071Z,101395.00
2019-02-05T14:36:42.488Z,101399.00
2019-02-05T14:39:15.100Z,101398.00
2019-02-05T14:41:48.309Z,101385.00
2019-02-05T14:44:20.944Z,101390.00
2019-02-05T14:46:53.600Z,101384.00
2019-02-05T14:49:26.386Z,101387.00
2019-02-05T14:51:58.777Z,101379.00
2019-02-05T14:54:31.604Z,101374.00
2019-02-05T14:57:06.313Z,101381.00
2019-02-05T14:59:38.409Z,101380.00
2019-02-05T15:02:11.063Z,101387.00
2019-02-05T15:04:43.662Z,101384.00
2019-02-05T15:07:16.540Z,101370.00
2019-02-05T15:09:49.254Z,101368.00
2019-02-05T15:12:22.007Z,101373.00
2019-02-05T15:14:54.503Z,101375.00
2019-02-05T15:17:27.252Z,101376.00
2019-02-05T15:19:59.790Z,101383.00
2019-02-05T15:22:32.480Z,101379.00
2019-02-05T15:25:05.374Z,101381.00
2019-02-05T15:27:38.721Z,101376.00
2019-02-05T15:30:19.145Z,101381.00
2019-02-05T15:33:08.129Z,101375.00
2019-02-05T15:35:43.001Z,101386.00
2019-02-05T15:38:15.369Z,101371.00
2019-02-05T15:40:48.277Z,101377.00
2019-02-05T15:43:20.825Z,101372.00
2019-02-05T15:45:53.296Z,101368.00
2019-02-05T15:48:26.706Z,101369.00
2019-02-05T15:50:59.070Z,101367.00
2019-02-05T15:53:31.675Z,101373.00
2019-02-05T15:56:05.045Z,101378.00
2019-02-05T15:58:37.847Z,101374.00
2019-02-05T16:01:10.675Z,101367.00
2019-02-05T16:03:43.159Z,101373.00
2019-02-05T16:06:15.907Z,101371.00
2019-02-05T16:08:48.487Z,101376.00
2019-02-05T16:11:21.187Z,101373.00
2019-02-05T16:13:53.872Z,101369.00
2019-02-05T16:16:26.657Z,101373.00
2019-02-05T16:19:00.362Z,101365.00
2019-02-05T16:21:33.124Z,101376.00
2019-02-05T16:24:05.584Z,101380.00
2019-02-05T16:26:38.437Z,101372.00
2019-02-05T16:29:11.069Z,101371.00
2019-02-05T16:31:44.705Z,101371.00
2019-02-05T16:34:17.109Z,101362.00
2019-02-05T16:36:50.818Z,101371.00
2019-02-05T16:39:23.394Z,101368.00
2019-02-05T16:41:55.770Z,101375.00
2019-02-05T16:44:28.422Z,101376.00
2019-02-05T16:47:01.918Z,101379.00
2019-02-05T16:49:34.514Z,101380.00
2019-02-05T16:52:07.314Z,101372.00
2019-02-05T16:54:40.242Z,101375.00
2019-02-05T16:57:12.779Z,101374.00
2019-02-05T16:59:45.788Z,101369.00
2019-02-05T17:02:28.420Z,101377.00
2019-02-05T17:04:51.908Z,101379.00
2019-02-05T17:07:24.535Z,101383.00
2019-02-05T17:09:57.076Z,101383.00
2019-02-05T17:12:29.755Z,101381.00
2019-02-05T17:15:02.290Z,101383.00
2019-02-05T17:17:35.280Z,101388.00
2019-02-05T17:20:09.411Z,101392.00
2019-02-05T17:22:42.145Z,101386.00
2019-02-05T17:25:16.694Z,101387.00
2019-02-05T17:27:49.615Z,101399.00
2019-02-05T17:30:26.655Z,101394.00
2019-02-05T17:32:59.384Z,101395.00
2019-02-05T17:35:31.896Z,101401.00
2019-02-05T17:38:05.536Z,101396.00
2019-02-05T17:40:38.222Z,101403.00
2019-02-05T17:43:10.692Z,101403.00
2019-02-05T17:45:46.255Z,101405.00
2019-02-05T17:48:20.020Z,101405.00
2019-02-05T17:50:52.600Z,101412.00
2019-02-05T17:53:25.639Z,101415.00
2019-02-05T17:55:58.470Z,101410.00
2019-02-05T17:58:31.142Z,101409.00
2019-02-05T18:01:04.883Z,101411.00
2019-02-05T18:03:37.299Z,101412.00
2019-02-05T18:06:09.888Z,101406.00
2019-02-05T18:08:43.770Z,101410.00
2019-02-05T18:11:16.267Z,101411.00
2019-02-05T18:13:48.728Z,101421.00
2019-02-05T18:16:21.374Z,101420.00
2019-02-05T18:18:53.976Z,101416.00
2019-02-05T18:21:27.348Z,101422.00
2019-02-05T18:24:00.169Z,101422.00
2019-02-05T18:26:32.763Z,101424.00
2019-02-05T18:29:05.416Z,101428.00
2019-02-05T18:31:37.947Z,101426.00
2019-02-05T18:34:10.677Z,101424.00
2019-02-05T18:36:43.295Z,101436.00
2019-02-05T18:39:15.878Z,101429.00
2019-02-05T18:41:48.553Z,101424.00
2019-02-05T18:44:21.344Z,101430.00
2019-02-05T18:46:53.734Z,101431.00
2019-02-05T18:49:26.324Z,101443.00
2019-02-05T18:51:59.795Z,101440.00
2019-02-05T18:54:32.359Z,101438.00
2019-02-05T18:57:04.839Z,101450.00
2019-02-05T18:59:37.691Z,101458.00
2019-02-05T19:02:10.116Z,101463.00
2019-02-05T19:04:42.772Z,101459.00
2019-02-05T19:07:15.360Z,101462.00
2019-02-05T19:09:48.341Z,101459.00
2019-02-05T19:12:21.050Z,101470.00
2019-02-05T19:14:53.577Z,101478.00
2019-02-05T19:17:26.290Z,101477.00
2019-02-05T19:19:58.957Z,101479.00
2019-02-05T19:22:31.515Z,101472.00
2019-02-05T19:25:04.779Z,101482.00
2019-02-05T19:27:37.411Z,101483.00
2019-02-05T19:30:12.090Z,101477.00
2019-02-05T19:32:44.499Z,101478.00
2019-02-05T19:35:17.123Z,101480.00
2019-02-05T19:37:53.551Z,101487.00
2019-02-05T19:40:26.091Z,101499.00
2019-02-05T19:42:58.603Z,101490.00
2019-02-05T19:45:48.648Z,101496.00
2019-02-05T19:48:25.154Z,101494.00
2019-02-05T19:50:57.953Z,101503.00
2019-02-05T19:53:31.519Z,101496.00
2019-02-05T19:56:04.286Z,101494.00
2019-02-05T19:58:37.184Z,101494.00
2019-02-05T20:01:10.117Z,101504.00
2019-02-05T20:03:42.858Z,101499.00
2019-02-05T20:06:15.834Z,101496.00
2019-02-05T20:08:49.001Z,101497.00
2019-02-05T20:11:22.846Z,101501.00
2019-02-05T20:13:58.542Z,101501.00
2019-02-05T20:16:31.201Z,101503.00
2019-02-05T20:19:04.241Z,101505.00
2019-02-05T20:21:36.777Z,101505.00
2019-02-05T20:24:09.585Z,101501.00
2019-02-05T20:26:42.362Z,101501.00
2019-02-05T20:29:14.897Z,101499.00
2019-02-05T20:31:48.581Z,101495.00
2019-02-05T20:34:21.437Z,101501.00
2019-02-05T20:36:53.830Z,101507.00
2019-02-05T20:39:27.580Z,101498.00
2019-02-05T20:42:00.148Z,101489.00
2019-02-05T20:44:32.642Z,101514.00
2019-02-05T20:47:05.278Z,101491.00
2019-02-05T20:49:37.690Z,101492.00
2019-02-05T20:52:10.358Z,101499.00
2019-02-05T20:54:42.757Z,101505.00
2019-02-05T20:57:15.264Z,101505.00
2019-02-05T20:59:47.974Z,101507.00
2019-02-05T21:02:20.929Z,101507.00
2019-02-05T21:04:53.842Z,101512.00
2019-02-05T21:07:26.674Z,101495.00
2019-02-05T21:09:59.195Z,101502.00
2019-02-05T21:12:32.236Z,101502.00
2019-02-05T21:15:05.458Z,101490.00
2019-02-05T21:17:38.519Z,101494.00
2019-02-05T21:20:16.021Z,101507.00
2019-02-05T21:22:48.880Z,101501.00
2019-02-05T21:25:22.872Z,101498.00
2019-02-05T21:27:58.080Z,101506.00
2019-02-05T21:30:29.830Z,101506.00
2019-02-05T21:33:02.691Z,101505.00
2019-02-05T21:35:39.185Z,101510.00
2019-02-05T21:38:12.176Z,101508.00
2019-02-05T21:40:44.716Z,101508.00
2019-02-05T21:43:17.564Z,101504.00
2019-02-05T21:45:50.472Z,101509.00
2019-02-05T21:48:23.102Z,101503.00
2019-02-05T21:50:55.685Z,101503.00
2019-02-05T21:53:28.695Z,101502.00
2019-02-05T21:56:01.177Z,101509.00
2019-02-05T21:58:33.832Z,101508.00
2019-02-05T22:01:09.846Z,101504.00
2019-02-05T22:03:42.590Z,101499.00
2019-02-05T22:06:15.408Z,101501.00
2019-02-05T22:08:48.068Z,101500.00
2019-02-05T22:11:26.263Z,101498.00
2019-02-05T22:13:57.563Z,101503.00
2019-02-05T22:16:30.242Z,101500.00
2019-02-05T22:19:02.814Z,101486.00
2019-02-05T22:21:35.568Z,101489.00
2019-02-05T22:24:09.485Z,101491.00
2019-02-05T22:26:45.069Z,101480.00
2019-02-05T22:29:17.845Z,101485.00
2019-02-05T22:31:50.601Z,101488.00
2019-02-05T22:34:24.202Z,101490.00
2019-02-05T22:36:59.684Z,101485.00
2019-02-05T22:39:33.591Z,101489.00
2019-02-05T22:42:06.344Z,101473.00
2019-02-05T22:44:40.223Z,101481.00
2019-02-05T22:47:12.796Z,101476.00
2019-02-05T22:49:45.484Z,101474.00
2019-02-05T22:52:18.986Z,101470.00
2019-02-05T22:54:52.568Z,101467.00
2019-02-05T22:57:26.647Z,101476.00
2019-02-05T23:00:04.534Z,101469.00
2019-02-05T23:02:39.074Z,101471.00
2019-02-05T23:05:23.464Z,101463.00
2019-02-05T23:07:57.704Z,101463.00
2019-02-05T23:10:32.743Z,101460.00
2019-02-05T23:13:06.444Z,101467.00
2019-02-05T23:15:39.355Z,101463.00
2019-02-05T23:18:12.836Z,101462.00
2019-02-05T23:20:47.177Z,101457.00
2019-02-05T23:23:20.432Z,101455.00
2019-02-05T23:25:56.101Z,101456.00
2019-02-05T23:28:27.967Z,101447.00
2019-02-05T23:31:01.331Z,101450.00
2019-02-05T23:33:34.767Z,101450.00
2019-02-05T23:36:09.251Z,101447.00
2019-02-05T23:38:42.712Z,101443.00
2019-02-05T23:41:15.875Z,101453.00
2019-02-05T23:43:48.911Z,101438.00
2019-02-05T23:46:21.528Z,101435.00
2019-02-05T23:48:57.896Z,101442.00
2019-02-05T23:51:31.393Z,101472.00
2019-02-05T23:54:04.760Z,101436.00
2019-02-05T23:56:38.309Z,101435.00
2019-02-05T23:59:11.531Z,101463.00
